createdAt,value
2022-10-17T00:02:08.582Z,100469.44
2022-10-17T00:04:36.634Z,100473.25
2022-10-17T00:07:04.676Z,100469.84
2022-10-17T00:09:34.100Z,100471.00
2022-10-17T00:12:02.713Z,100474.94
2022-10-17T00:14:30.739Z,100472.09
2022-10-17T00:16:58.835Z,100471.13
2022-10-17T00:19:27.022Z,100475.50
2022-10-17T00:21:55.566Z,100471.00
2022-10-17T00:24:23.595Z,100473.81
2022-10-17T00:26:52.971Z,100474.25
2022-10-17T00:29:21.001Z,100474.81
2022-10-17T00:31:49.353Z,100481.16
2022-10-17T00:34:17.392Z,100486.53
2022-10-17T00:36:45.968Z,100488.63
2022-10-17T00:39:14.139Z,100485.94
2022-10-17T00:41:42.212Z,100489.19
2022-10-17T00:44:47.038Z,100486.34
2022-10-17T00:47:19.065Z,100486.09
2022-10-17T00:49:48.920Z,100483.97
2022-10-17T00:52:22.872Z,100481.72
2022-10-17T00:54:54.560Z,100477.88
2022-10-17T00:57:22.636Z,100483.53
2022-10-17T00:59:54.293Z,100478.16
2022-10-17T01:02:24.923Z,100486.38
2022-10-17T01:04:55.117Z,100482.28
2022-10-17T01:07:23.274Z,100475.94
2022-10-17T01:09:51.557Z,100474.81
2022-10-17T01:12:22.076Z,100474.53
2022-10-17T01:15:07.005Z,100475.19
2022-10-17T01:17:47.636Z,100475.94
2022-10-17T01:20:43.228Z,100467.16
2022-10-17T01:23:40.427Z,100462.22
2022-10-17T01:26:17.407Z,100469.84
2022-10-17T01:29:10.411Z,100466.47
2022-10-17T01:31:44.079Z,100471.81
2022-10-17T01:34:16.136Z,100462.22
2022-10-17T01:36:50.302Z,100462.09
2022-10-17T01:39:26.889Z,100456.84
2022-10-17T01:42:00.473Z,100461.66
2022-10-17T01:44:31.496Z,100464.88
2022-10-17T01:47:04.741Z,100462.63
2022-10-17T01:49:34.941Z,100457.25
2022-10-17T01:52:05.545Z,100462.19
2022-10-17T01:54:36.271Z,100452.19
2022-10-17T01:57:07.527Z,100455.72
2022-10-17T01:59:39.366Z,100455.72
2022-10-17T02:02:09.781Z,100453.28
2022-10-17T02:04:38.011Z,100453.75
2022-10-17T02:07:09.621Z,100449.78
2022-10-17T02:09:38.624Z,100449.94
2022-10-17T02:12:35.228Z,100445.09
2022-10-17T02:15:13.870Z,100442.00
2022-10-17T02:17:47.612Z,100437.19
2022-10-17T02:20:21.016Z,100437.50
2022-10-17T02:22:53.042Z,100437.19
2022-10-17T02:25:25.264Z,100441.91
2022-10-17T02:27:59.916Z,100450.22
2022-10-17T02:30:32.754Z,100457.22
2022-10-17T02:33:03.685Z,100455.72
2022-10-17T02:35:34.300Z,100457.53
2022-10-17T02:38:03.872Z,100460.34
2022-10-17T02:40:32.568Z,100461.50
2022-10-17T02:43:01.714Z,100466.16
2022-10-17T02:45:35.888Z,100460.06
2022-10-17T02:48:10.076Z,100465.13
2022-10-17T02:50:44.645Z,100468.41
2022-10-17T02:53:16.449Z,100472.84
2022-10-17T02:55:48.889Z,100465.84
2022-10-17T02:58:20.434Z,100470.75
2022-10-17T03:00:48.988Z,100480.66
2022-10-17T03:03:23.408Z,100475.25
2022-10-17T03:05:52.423Z,100478.69
2022-10-17T03:08:24.067Z,100474.84
2022-10-17T03:10:52.485Z,100474.97
2022-10-17T03:13:22.034Z,100469.13
2022-10-17T03:15:51.048Z,100482.38
2022-10-17T03:18:19.091Z,100480.66
2022-10-17T03:20:50.636Z,100480.34
2022-10-17T03:23:18.667Z,100481.78
2022-10-17T03:25:47.342Z,100491.09
2022-10-17T03:28:16.710Z,100491.25
2022-10-17T03:30:44.835Z,100500.88
2022-10-17T03:33:12.938Z,100505.50
2022-10-17T03:35:41.567Z,100503.78
2022-10-17T03:38:11.364Z,100504.38
2022-10-17T03:40:39.490Z,100509.56
2022-10-17T03:43:07.755Z,100511.53
2022-10-17T03:45:36.941Z,100509.13
2022-10-17T03:48:06.129Z,100519.13
2022-10-17T03:50:34.164Z,100526.81
2022-10-17T03:53:02.184Z,100519.91
2022-10-17T03:55:31.605Z,100524.09
2022-10-17T03:57:59.901Z,100526.63
2022-10-17T04:00:28.098Z,100528.56
2022-10-17T04:02:59.526Z,100523.53
2022-10-17T04:05:28.086Z,100527.03
2022-10-17T04:07:59.800Z,100531.25
2022-10-17T04:10:51.745Z,100528.16
2022-10-17T04:13:19.887Z,100533.91
2022-10-17T04:15:55.425Z,100535.72
2022-10-17T04:18:23.766Z,100536.72
2022-10-17T04:20:51.932Z,100538.16
2022-10-17T04:23:20.914Z,100534.94
2022-10-17T04:25:52.027Z,100532.19
2022-10-17T04:28:20.219Z,100530.09
2022-10-17T04:30:49.958Z,100538.19
2022-10-17T04:33:21.510Z,100538.78
2022-10-17T04:35:56.769Z,100536.38
2022-10-17T04:38:28.412Z,100553.28
2022-10-17T04:41:00.129Z,100552.44
2022-10-17T04:43:28.203Z,100559.56
2022-10-17T04:45:56.322Z,100553.41
2022-10-17T04:48:24.360Z,100552.50
2022-10-17T04:50:56.105Z,100558.22
2022-10-17T04:53:42.988Z,100559.72
2022-10-17T04:56:14.252Z,100563.53
2022-10-17T04:58:43.457Z,100568.69
2022-10-17T05:01:13.290Z,100561.31
2022-10-17T05:03:43.033Z,100564.94
2022-10-17T05:06:12.516Z,100565.13
2022-10-17T05:08:41.327Z,100574.91
2022-10-17T05:11:19.140Z,100576.03
2022-10-17T05:13:51.206Z,100583.97
2022-10-17T05:16:20.123Z,100583.59
2022-10-17T05:18:52.783Z,100581.13
2022-10-17T05:21:22.148Z,100594.31
2022-10-17T05:23:50.566Z,100590.25
2022-10-17T05:26:20.546Z,100589.56
2022-10-17T05:28:49.849Z,100591.81
2022-10-17T05:31:20.368Z,100595.41
2022-10-17T05:33:48.529Z,100593.28
2022-10-17T05:36:16.641Z,100594.41
2022-10-17T05:38:44.891Z,100605.56
2022-10-17T05:41:12.986Z,100604.69
2022-10-17T05:43:42.403Z,100613.56
2022-10-17T05:46:11.011Z,100618.75
2022-10-17T05:48:40.252Z,100617.66
2022-10-17T05:51:10.500Z,100623.75
2022-10-17T05:53:40.297Z,100630.25
2022-10-17T05:56:14.385Z,100640.28
2022-10-17T05:58:53.239Z,100631.56
2022-10-17T06:01:53.623Z,100634.56
2022-10-17T06:04:23.400Z,100633.47
2022-10-17T06:06:53.243Z,100643.91
2022-10-17T06:09:21.568Z,100643.16
2022-10-17T06:11:52.436Z,100638.69
2022-10-17T06:14:22.882Z,100641.00
2022-10-17T06:16:54.566Z,100643.56
2022-10-17T06:19:22.603Z,100650.69
2022-10-17T06:21:50.672Z,100655.00
2022-10-17T06:24:22.679Z,100653.69
2022-10-17T06:26:53.124Z,100656.25
2022-10-17T06:29:23.950Z,100658.16
2022-10-17T06:31:53.236Z,100659.03
2022-10-17T06:34:22.026Z,100657.03
2022-10-17T06:36:50.292Z,100668.22
2022-10-17T06:39:20.077Z,100673.97
2022-10-17T06:42:01.452Z,100670.91
2022-10-17T06:44:59.806Z,100679.09
2022-10-17T06:47:46.306Z,100673.72
2022-10-17T06:50:43.239Z,100678.31
2022-10-17T06:53:20.409Z,100678.44
2022-10-17T06:56:14.304Z,100685.94
2022-10-17T06:59:10.660Z,100685.09
2022-10-17T07:02:01.899Z,100694.72
2022-10-17T07:04:31.109Z,100699.28
2022-10-17T07:09:34.469Z,100704.22
2022-10-17T07:12:02.571Z,100702.25
2022-10-17T07:14:32.863Z,100700.41
2022-10-17T07:17:02.827Z,100699.06
2022-10-17T07:19:33.228Z,100701.28
2022-10-17T07:22:01.287Z,100705.84
2022-10-17T07:24:29.581Z,100707.75
2022-10-17T07:27:15.874Z,100705.75
2022-10-17T07:29:44.045Z,100699.69
2022-10-17T07:32:34.663Z,100711.59
2022-10-17T07:35:03.525Z,100712.69
2022-10-17T07:37:32.065Z,100711.59
2022-10-17T07:40:01.292Z,100710.19
2022-10-17T07:42:29.550Z,100707.50
2022-10-17T07:44:58.580Z,100716.97
2022-10-17T07:47:31.421Z,100711.72
2022-10-17T07:50:02.182Z,100708.22
2022-10-17T07:52:30.468Z,100717.72
2022-10-17T07:54:58.730Z,100715.88
2022-10-17T07:57:26.983Z,100718.84
2022-10-17T07:59:55.323Z,100721.22
2022-10-17T08:02:24.978Z,100722.22
2022-10-17T08:04:53.103Z,100720.09
2022-10-17T08:07:27.003Z,100718.38
2022-10-17T08:09:57.637Z,100724.34
2022-10-17T08:12:26.236Z,100714.00
2022-10-17T08:14:54.318Z,100729.69
2022-10-17T08:17:22.814Z,100732.94
2022-10-17T08:19:50.803Z,100732.28
2022-10-17T08:22:18.988Z,100729.69
2022-10-17T08:24:48.417Z,100725.84
2022-10-17T08:27:21.514Z,100723.97
2022-10-17T08:29:52.863Z,100733.72
2022-10-17T08:32:21.856Z,100732.13
2022-10-17T08:34:50.153Z,100723.16
2022-10-17T08:37:18.336Z,100720.94
2022-10-17T08:39:48.057Z,100718.94
2022-10-17T08:42:32.332Z,100723.34
2022-10-17T08:45:05.919Z,100708.13
2022-10-17T08:47:37.531Z,100723.66
2022-10-17T08:50:07.683Z,100721.50
2022-10-17T08:52:39.107Z,100722.84
2022-10-17T08:55:16.442Z,100721.72
2022-10-17T08:57:44.842Z,100719.25
2022-10-17T09:00:19.226Z,100713.75
2022-10-17T09:02:57.692Z,100720.78
2022-10-17T09:05:34.947Z,100716.09
2022-10-17T09:08:26.112Z,100715.09
2022-10-17T09:10:58.955Z,100712.53
2022-10-17T09:13:38.013Z,100721.53
2022-10-17T09:16:16.236Z,100717.75
2022-10-17T09:18:47.752Z,100720.97
2022-10-17T09:21:20.968Z,100723.50
2022-10-17T09:23:59.445Z,100719.72
2022-10-17T09:26:38.742Z,100724.56
2022-10-17T09:29:15.408Z,100716.66
2022-10-17T09:31:46.767Z,100723.97
2022-10-17T09:34:14.875Z,100723.88
2022-10-17T09:36:44.124Z,100726.91
2022-10-17T09:39:15.118Z,100719.88
2022-10-17T09:41:47.259Z,100713.47
2022-10-17T09:44:19.008Z,100718.59
2022-10-17T09:46:57.742Z,100721.69
2022-10-17T09:49:37.300Z,100719.72
2022-10-17T09:52:07.332Z,100720.72
2022-10-17T09:54:42.928Z,100718.25
2022-10-17T09:57:13.969Z,100718.97
2022-10-17T09:59:47.992Z,100730.31
2022-10-17T10:02:19.783Z,100723.56
2022-10-17T10:05:07.255Z,100726.59
2022-10-17T10:07:38.204Z,100721.25
2022-10-17T10:10:08.251Z,100713.47
2022-10-17T10:12:39.848Z,100718.53
2022-10-17T10:15:32.126Z,100721.41
2022-10-17T10:18:00.183Z,100711.09
2022-10-17T10:20:32.491Z,100723.00
2022-10-17T10:23:17.434Z,100722.81
2022-10-17T10:25:56.405Z,100711.84
2022-10-17T10:28:28.055Z,100715.88
2022-10-17T10:30:57.308Z,100716.38
2022-10-17T10:33:29.253Z,100717.38
2022-10-17T10:35:59.476Z,100702.16
2022-10-17T10:38:27.571Z,100698.91
2022-10-17T10:40:57.163Z,100700.25
2022-10-17T10:43:33.292Z,100698.03
2022-10-17T10:46:01.929Z,100692.06
2022-10-17T10:48:33.431Z,100692.22
2022-10-17T10:51:03.822Z,100696.09
2022-10-17T10:53:41.458Z,100683.22
2022-10-17T10:56:17.095Z,100684.41
2022-10-17T10:58:54.449Z,100673.91
2022-10-17T11:01:29.460Z,100681.19
2022-10-17T11:04:21.547Z,100669.81
2022-10-17T11:06:51.977Z,100677.72
2022-10-17T11:09:30.093Z,100668.28
2022-10-17T11:12:08.161Z,100669.28
2022-10-17T11:14:44.533Z,100668.88
2022-10-17T11:17:19.006Z,100670.53
2022-10-17T11:19:53.561Z,100662.66
2022-10-17T11:22:29.292Z,100656.97
2022-10-17T11:25:00.940Z,100665.53
2022-10-17T11:27:30.146Z,100660.13
2022-10-17T11:29:59.792Z,100651.53
2022-10-17T11:32:31.531Z,100657.94
2022-10-17T11:35:04.863Z,100650.50
2022-10-17T11:37:36.563Z,100653.75
2022-10-17T11:40:09.370Z,100656.00
2022-10-17T11:42:42.798Z,100649.31
2022-10-17T11:45:15.470Z,100651.00
2022-10-17T11:47:46.576Z,100645.28
2022-10-17T11:53:14.514Z,100642.66
2022-10-17T11:55:43.270Z,100640.13
2022-10-17T11:58:24.944Z,100645.47
2022-10-17T12:01:02.186Z,100647.03
2022-10-17T12:03:36.956Z,100637.28
2022-10-17T12:06:12.549Z,100633.75
2022-10-17T12:08:45.967Z,100632.59
2022-10-17T12:11:20.911Z,100630.44
2022-10-17T12:13:54.687Z,100615.56
2022-10-17T12:16:51.332Z,100626.09
2022-10-17T12:19:28.818Z,100632.69
2022-10-17T12:22:05.033Z,100629.38
2022-10-17T12:24:40.121Z,100626.22
2022-10-17T12:27:42.473Z,100624.97
2022-10-17T12:30:19.983Z,100621.06
2022-10-17T12:33:06.731Z,100628.81
2022-10-17T12:35:37.611Z,100615.38
2022-10-17T12:38:20.616Z,100619.22
2022-10-17T12:41:06.105Z,100615.00
2022-10-17T12:43:52.846Z,100612.75
2022-10-17T12:46:48.402Z,100619.38
2022-10-17T12:49:38.672Z,100613.03
2022-10-17T12:52:35.303Z,100612.81
2022-10-17T12:55:13.958Z,100622.09
2022-10-17T12:57:48.556Z,100625.56
2022-10-17T13:00:24.168Z,100612.19
2022-10-17T13:02:55.415Z,100619.84
2022-10-17T13:05:29.453Z,100619.28
2022-10-17T13:07:59.971Z,100613.84
2022-10-17T13:10:29.652Z,100612.31
2022-10-17T13:13:06.501Z,100621.09
2022-10-17T13:15:35.169Z,100619.03
2022-10-17T13:18:03.330Z,100611.16
2022-10-17T13:20:33.412Z,100610.34
2022-10-17T13:23:01.514Z,100618.56
2022-10-17T13:25:30.027Z,100613.69
2022-10-17T13:28:07.538Z,100619.41
2022-10-17T13:30:37.372Z,100612.69
2022-10-17T13:33:19.377Z,100609.59
2022-10-17T13:36:05.151Z,100599.34
2022-10-17T13:38:36.636Z,100596.00
2022-10-17T13:41:34.198Z,100601.88
2022-10-17T13:44:02.759Z,100609.59
2022-10-17T13:46:37.907Z,100606.75
2022-10-17T13:49:12.172Z,100603.84
2022-10-17T13:51:44.313Z,100614.59
2022-10-17T13:54:20.427Z,100614.72
2022-10-17T13:56:48.552Z,100613.41
2022-10-17T13:59:24.175Z,100610.88
2022-10-17T14:01:52.885Z,100607.69
2022-10-17T14:04:21.024Z,100617.38
2022-10-17T14:06:52.310Z,100606.03
2022-10-17T14:09:23.868Z,100617.56
2022-10-17T14:12:02.714Z,100607.25
2022-10-17T14:14:46.207Z,100617.63
2022-10-17T14:17:24.162Z,100622.78
2022-10-17T14:20:06.556Z,100625.13
2022-10-17T14:22:50.439Z,100611.25
2022-10-17T14:25:30.790Z,100620.44
2022-10-17T14:28:08.081Z,100609.84
2022-10-17T14:30:55.590Z,100615.28
2022-10-17T14:33:27.122Z,100609.47
2022-10-17T14:35:56.886Z,100615.00
2022-10-17T14:38:26.700Z,100613.31
2022-10-17T14:41:09.769Z,100617.31
2022-10-17T14:43:56.190Z,100621.44
2022-10-17T14:46:24.411Z,100617.03
2022-10-17T14:48:57.264Z,100615.94
2022-10-17T14:51:25.324Z,100615.00
2022-10-17T14:54:15.166Z,100616.28
2022-10-17T14:56:44.223Z,100611.59
2022-10-17T14:59:18.248Z,100618.50
2022-10-17T15:01:54.003Z,100615.41
2022-10-17T15:04:23.457Z,100613.72
2022-10-17T15:06:55.529Z,100608.66
2022-10-17T15:09:28.874Z,100612.50
2022-10-17T15:11:59.376Z,100609.38
2022-10-17T15:14:29.019Z,100609.00
2022-10-17T15:16:58.013Z,100607.75
2022-10-17T15:19:27.461Z,100605.91
2022-10-17T15:21:56.492Z,100611.84
2022-10-17T15:24:27.023Z,100613.88
2022-10-17T15:26:56.635Z,100617.38
2022-10-17T15:29:24.719Z,100616.88
2022-10-17T15:32:00.489Z,100621.34
2022-10-17T15:34:29.886Z,100612.25
2022-10-17T15:36:58.930Z,100622.75
2022-10-17T15:39:29.549Z,100627.03
2022-10-17T15:41:58.854Z,100621.75
2022-10-17T15:44:28.019Z,100624.81
2022-10-17T15:46:57.324Z,100624.16
2022-10-17T15:49:26.906Z,100626.22
2022-10-17T15:51:55.443Z,100640.25
2022-10-17T15:54:27.085Z,100633.06
2022-10-17T15:56:58.026Z,100633.94
2022-10-17T15:59:31.848Z,100639.19
2022-10-17T16:02:02.179Z,100637.84
2022-10-17T16:04:30.693Z,100638.88
2022-10-17T16:06:59.059Z,100637.84
2022-10-17T16:09:29.194Z,100637.72
2022-10-17T16:11:58.583Z,100636.19
2022-10-17T16:14:26.665Z,100630.97
2022-10-17T16:16:54.686Z,100634.19
2022-10-17T16:19:23.749Z,100633.00
2022-10-17T16:21:51.812Z,100634.72
2022-10-17T16:24:19.939Z,100638.44
2022-10-17T16:26:47.947Z,100637.75
2022-10-17T16:29:17.854Z,100635.88
2022-10-17T16:31:46.767Z,100635.72
2022-10-17T16:34:15.981Z,100647.38
2022-10-17T16:36:44.242Z,100638.94
2022-10-17T16:39:12.301Z,100640.81
2022-10-17T16:41:40.720Z,100647.22
2022-10-17T16:44:10.306Z,100642.84
2022-10-17T16:46:39.777Z,100644.03
2022-10-17T16:49:08.138Z,100646.38
2022-10-17T16:51:36.934Z,100648.09
2022-10-17T16:54:06.431Z,100651.63
2022-10-17T16:56:35.082Z,100656.88
2022-10-17T16:59:04.245Z,100653.16
2022-10-17T17:01:33.137Z,100641.97
2022-10-17T17:04:05.699Z,100656.00
2022-10-17T17:06:34.409Z,100652.81
2022-10-17T17:09:03.592Z,100650.91
2022-10-17T17:11:33.458Z,100649.75
2022-10-17T17:14:07.413Z,100647.22
2022-10-17T17:16:37.581Z,100647.88
2022-10-17T17:19:09.760Z,100641.13
2022-10-17T17:21:40.057Z,100643.66
2022-10-17T17:24:08.355Z,100638.06
2022-10-17T17:26:37.561Z,100648.59
2022-10-17T17:29:07.204Z,100639.28
2022-10-17T17:31:39.689Z,100638.41
2022-10-17T17:34:17.245Z,100631.31
2022-10-17T17:36:50.296Z,100639.91
2022-10-17T17:39:19.377Z,100639.50
2022-10-17T17:41:49.701Z,100643.25
2022-10-17T17:44:19.301Z,100644.13
2022-10-17T17:46:49.643Z,100644.91
2022-10-17T17:49:22.326Z,100648.47
2022-10-17T17:51:52.411Z,100652.69
2022-10-17T17:54:31.093Z,100657.09
2022-10-17T17:57:03.691Z,100648.91
2022-10-17T17:59:34.258Z,100650.91
2022-10-17T18:02:06.724Z,100645.34
2022-10-17T18:04:41.182Z,100658.22
2022-10-17T18:07:13.344Z,100651.28
2022-10-17T18:09:43.365Z,100659.06
2022-10-17T18:12:13.094Z,100656.69
2022-10-17T18:14:44.826Z,100647.22
2022-10-17T18:17:14.466Z,100651.78
2022-10-17T18:19:45.652Z,100648.75
2022-10-17T18:22:15.827Z,100646.06
2022-10-17T18:24:44.905Z,100640.00
2022-10-17T18:27:16.542Z,100652.97
2022-10-17T18:29:47.817Z,100647.22
2022-10-17T18:32:17.927Z,100646.69
2022-10-17T18:34:51.687Z,100646.38
2022-10-17T18:37:21.210Z,100647.88
2022-10-17T18:39:55.950Z,100642.81
2022-10-17T18:42:27.394Z,100651.06
2022-10-17T18:44:59.601Z,100655.13
2022-10-17T18:47:32.165Z,100651.41
2022-10-17T18:50:06.053Z,100652.41
2022-10-17T18:52:43.666Z,100653.16
2022-10-17T18:55:13.868Z,100662.03
2022-10-17T18:57:46.955Z,100653.88
2022-10-17T19:00:18.253Z,100658.63
2022-10-17T19:02:48.082Z,100661.41
2022-10-17T19:05:19.574Z,100650.78
2022-10-17T19:07:53.902Z,100650.50
2022-10-17T19:10:22.317Z,100647.06
2022-10-17T19:12:51.875Z,100648.78
2022-10-17T19:15:25.946Z,100657.06
2022-10-17T19:17:55.756Z,100652.28
2022-10-17T19:20:28.314Z,100654.50
2022-10-17T19:22:58.213Z,100646.56
2022-10-17T19:25:30.405Z,100648.72
2022-10-17T19:28:03.964Z,100653.78
2022-10-17T19:30:34.009Z,100649.03
2022-10-17T19:33:04.144Z,100655.09
2022-10-17T19:35:36.817Z,100656.09
2022-10-17T19:38:09.352Z,100654.44
2022-10-17T19:40:42.261Z,100662.66
2022-10-17T19:43:11.934Z,100663.00
2022-10-17T19:45:42.066Z,100666.09
2022-10-17T19:48:13.412Z,100663.66
2022-10-17T19:50:51.941Z,100666.88
2022-10-17T19:53:21.299Z,100666.69
2022-10-17T19:55:51.474Z,100669.50
2022-10-17T19:58:22.517Z,100663.78
2022-10-17T20:00:59.249Z,100668.31
2022-10-17T20:03:30.604Z,100661.41
2022-10-17T20:06:00.486Z,100667.41
2022-10-17T20:08:30.425Z,100664.69
2022-10-17T20:11:04.509Z,100666.50
2022-10-17T20:13:35.375Z,100670.88
2022-10-17T20:16:06.576Z,100668.88
2022-10-17T20:18:35.870Z,100662.31
2022-10-17T20:21:12.257Z,100665.72
2022-10-17T20:23:41.259Z,100665.63
2022-10-17T20:26:25.879Z,100678.63
2022-10-17T20:29:02.683Z,100662.03
2022-10-17T20:31:33.421Z,100668.50
2022-10-17T20:34:01.563Z,100668.19
2022-10-17T20:36:32.526Z,100661.97
2022-10-17T20:39:03.271Z,100660.25
2022-10-17T20:41:31.440Z,100657.34
2022-10-17T20:44:02.585Z,100653.88
2022-10-17T20:46:37.813Z,100658.94
2022-10-17T20:49:07.468Z,100652.94
2022-10-17T20:51:37.599Z,100660.06
2022-10-17T20:54:08.200Z,100661.34
2022-10-17T20:56:38.833Z,100659.97
2022-10-17T20:59:12.211Z,100664.00
2022-10-17T21:01:40.994Z,100653.53
2022-10-17T21:04:40.603Z,100656.69
2022-10-17T21:07:03.321Z,100658.44
2022-10-17T21:09:31.428Z,100651.84
2022-10-17T21:14:39.202Z,100655.16
2022-10-17T21:17:07.861Z,100654.47
2022-10-17T21:19:36.087Z,100659.69
2022-10-17T21:22:05.839Z,100651.59
2022-10-17T21:24:34.191Z,100657.25
2022-10-17T21:27:02.459Z,100664.63
2022-10-17T21:29:30.609Z,100658.16
2022-10-17T21:32:02.439Z,100649.03
2022-10-17T21:34:31.514Z,100653.16
2022-10-17T21:37:06.162Z,100655.53
2022-10-17T21:39:35.647Z,100655.53
2022-10-17T21:42:07.252Z,100649.94
2022-10-17T21:44:38.430Z,100649.94
2022-10-17T21:47:07.623Z,100652.34
2022-10-17T21:49:35.786Z,100645.84
2022-10-17T21:52:07.332Z,100657.31
2022-10-17T21:54:36.826Z,100654.44
2022-10-17T21:57:06.082Z,100654.63
2022-10-17T21:59:35.580Z,100657.19
2022-10-17T22:02:03.898Z,100655.19
2022-10-17T22:04:32.181Z,100652.66
2022-10-17T22:07:02.596Z,100647.03
2022-10-17T22:09:33.419Z,100646.88
2022-10-17T22:12:05.402Z,100640.94
2022-10-17T22:14:33.492Z,100645.34
2022-10-17T22:17:03.892Z,100638.63
2022-10-17T22:19:31.972Z,100635.16
2022-10-17T22:22:00.579Z,100643.47
2022-10-17T22:24:29.741Z,100633.84
2022-10-17T22:27:00.401Z,100633.56
2022-10-17T22:29:30.015Z,100641.09
2022-10-17T22:32:00.456Z,100645.25
2022-10-17T22:34:28.875Z,100640.88
2022-10-17T22:36:57.822Z,100640.56
2022-10-17T22:39:27.273Z,100646.56
2022-10-17T22:41:55.578Z,100642.59
2022-10-17T22:44:23.897Z,100648.28
2022-10-17T22:46:55.872Z,100641.75
2022-10-17T22:49:23.985Z,100642.03
2022-10-17T22:51:54.580Z,100640.88
2022-10-17T22:54:22.942Z,100650.50
2022-10-17T22:56:51.088Z,100639.19
2022-10-17T22:59:19.121Z,100635.56
2022-10-17T23:01:47.242Z,100634.56
2022-10-17T23:04:19.333Z,100629.16
2022-10-17T23:06:48.691Z,100633.50
2022-10-17T23:09:19.058Z,100630.56
2022-10-17T23:11:48.517Z,100629.50
2022-10-17T23:14:19.253Z,100633.19
2022-10-17T23:16:51.623Z,100623.44
2022-10-17T23:19:23.484Z,100625.41
2022-10-17T23:21:53.622Z,100623.75
2022-10-17T23:24:21.728Z,100624.41
2022-10-17T23:26:51.266Z,100625.00
2022-10-17T23:29:19.646Z,100621.41
2022-10-17T23:31:47.810Z,100617.78
2022-10-17T23:34:15.844Z,100618.41
2022-10-17T23:36:46.551Z,100623.41
2022-10-17T23:39:14.682Z,100622.56
2022-10-17T23:41:45.044Z,100623.56
2022-10-17T23:44:14.142Z,100626.09
2022-10-17T23:46:44.391Z,100618.94
2022-10-17T23:49:13.883Z,100624.25
2022-10-17T23:51:42.667Z,100622.81
2022-10-17T23:54:13.228Z,100610.06
2022-10-17T23:56:43.416Z,100612.75
2022-10-17T23:59:15.203Z,100619.84
